Time;durP1;ratioP1;P1;durP2;ratioP2;P2;SDS_P1;SDS_P2;PMS_P1;PMS_P2;Temp;Humidity;BMP_temperature;BMP_pressure;BME280_temperature;BME280_humidity;BME280_pressure;Samples;Min_cycle;Max_cycle;Signal;HPM_P1;HPM_P2
2021/09/20 00:02:04;;;;;;;9.38;5.18;;;13.70;99.90;;;;;;5054437;28;20382;-85
2021/09/20 00:04:30;;;;;;;8.63;4.93;;;13.70;99.90;;;;;;5072232;28;20035;-85
2021/09/20 00:06:55;;;;;;;7.38;4.57;;;13.70;99.90;;;;;;5054590;28;20393;-85
2021/09/20 00:09:21;;;;;;;9.00;5.20;;;13.70;99.90;;;;;;5053791;28;20055;-84
2021/09/20 00:11:47;;;;;;;7.03;5.22;;;13.60;99.90;;;;;;5054138;28;20035;-86
2021/09/20 00:14:12;;;;;;;9.60;5.10;;;13.70;99.90;;;;;;5071964;28;20431;-85
2021/09/20 00:16:38;;;;;;;9.35;5.35;;;13.60;99.90;;;;;;5072098;28;20042;-85
2021/09/20 00:19:04;;;;;;;7.22;5.15;;;13.60;99.90;;;;;;5071493;28;20025;-85
2021/09/20 00:21:29;;;;;;;6.78;4.63;;;13.70;99.90;;;;;;5072071;28;20032;-85
2021/09/20 00:23:55;;;;;;;7.22;5.28;;;13.70;99.90;;;;;;5054248;28;20036;-86
2021/09/20 00:26:21;;;;;;;8.65;4.97;;;13.70;99.90;;;;;;5053935;28;20040;-85
2021/09/20 00:28:46;;;;;;;7.53;5.38;;;13.70;99.90;;;;;;5053843;28;20029;-85
2021/09/20 00:31:12;;;;;;;7.53;5.22;;;13.60;99.90;;;;;;5053727;28;20040;-85
2021/09/20 00:33:38;;;;;;;7.85;5.03;;;13.60;99.90;;;;;;5054076;28;20070;-85
2021/09/20 00:36:03;;;;;;;8.93;5.45;;;13.60;99.90;;;;;;5071933;28;20024;-85
2021/09/20 00:38:29;;;;;;;7.28;5.38;;;13.60;99.90;;;;;;5071939;28;20507;-86
2021/09/20 00:40:55;;;;;;;7.15;5.35;;;13.60;99.90;;;;;;5053378;28;20028;-85
2021/09/20 00:43:21;;;;;;;8.18;5.15;;;13.50;99.90;;;;;;5053834;28;20028;-86
2021/09/20 00:45:46;;;;;;;7.63;5.65;;;13.60;99.90;;;;;;5057956;28;20036;-86
2021/09/20 00:48:12;;;;;;;9.95;5.38;;;13.50;99.90;;;;;;5075802;28;20375;-86
2021/09/20 00:50:39;;;;;;;9.95;5.97;;;13.50;99.90;;;;;;5057314;28;20029;-85
2021/09/20 00:53:04;;;;;;;8.35;5.15;;;13.50;99.90;;;;;;5075672;28;20029;-85
2021/09/20 00:55:30;;;;;;;11.20;5.53;;;13.50;99.90;;;;;;5057830;28;20027;-85
2021/09/20 00:57:56;;;;;;;10.73;5.50;;;13.40;99.90;;;;;;5057695;28;20082;-85
2021/09/20 01:00:22;;;;;;;8.65;5.07;;;13.50;99.90;;;;;;5075090;28;20029;-85
2021/09/20 01:02:48;;;;;;;9.73;5.68;;;13.50;99.90;;;;;;5057656;28;20039;-85
2021/09/20 01:05:14;;;;;;;9.32;5.47;;;13.50;99.90;;;;;;5057791;28;20122;-86
2021/09/20 01:07:39;;;;;;;7.13;5.00;;;13.40;99.90;;;;;;5075574;28;20036;-85
2021/09/20 01:10:07;;;;;;;9.70;5.70;;;13.40;99.90;;;;;;5057142;28;20032;-85
2021/09/20 01:12:33;;;;;;;8.30;5.60;;;13.40;99.90;;;;;;5075073;28;20166;-85
2021/09/20 01:14:59;;;;;;;9.10;5.85;;;13.30;99.90;;;;;;5075390;28;20507;-85
2021/09/20 01:17:26;;;;;;;8.75;6.25;;;13.30;99.90;;;;;;5075212;28;20017;-85
2021/09/20 01:19:52;;;;;;;8.55;5.60;;;13.30;99.90;;;;;;5056898;28;20106;-85
2021/09/20 01:22:19;;;;;;;7.85;5.43;;;13.40;99.90;;;;;;5057545;28;20025;-85
2021/09/20 01:24:46;;;;;;;8.23;5.63;;;13.30;99.90;;;;;;5073948;28;20063;-86
2021/09/20 01:27:14;;;;;;;8.30;5.82;;;13.40;99.90;;;;;;5074900;28;20036;-85
2021/09/20 01:29:39;;;;;;;9.32;5.60;;;13.30;99.90;;;;;;5056867;28;20025;-85
2021/09/20 01:32:06;;;;;;;10.63;5.57;;;13.20;99.90;;;;;;5074982;28;20039;-85
2021/09/20 01:34:33;;;;;;;8.52;5.50;;;13.30;99.90;;;;;;5057362;28;20021;-85
2021/09/20 01:36:58;;;;;;;7.13;5.35;;;13.20;99.90;;;;;;5057211;28;20025;-85
2021/09/20 01:39:26;;;;;;;9.05;5.45;;;13.20;99.90;;;;;;5056557;28;20031;-85
2021/09/20 01:41:54;;;;;;;9.68;6.22;;;13.20;99.90;;;;;;5056951;28;20449;-85
2021/09/20 01:44:19;;;;;;;7.90;5.68;;;13.10;99.90;;;;;;5057284;28;20374;-86
2021/09/20 01:46:50;;;;;;;9.50;6.03;;;13.20;99.90;;;;;;5056770;28;20081;-85
2021/09/20 01:49:16;;;;;;;8.95;5.90;;;13.20;99.90;;;;;;5074279;28;20037;-85
2021/09/20 01:51:42;;;;;;;9.85;5.70;;;13.10;99.90;;;;;;5074665;28;20074;-85
2021/09/20 01:54:08;;;;;;;9.90;6.20;;;13.10;99.90;;;;;;5074684;28;20031;-85
2021/09/20 01:56:34;;;;;;;10.32;5.88;;;13.10;99.90;;;;;;5055267;28;20054;-85
2021/09/20 01:59:01;;;;;;;10.90;5.93;;;13.10;99.90;;;;;;5056227;28;20027;-86
2021/09/20 02:01:27;;;;;;;8.65;5.60;;;13.10;99.90;;;;;;5056552;28;20029;-86
2021/09/20 02:03:54;;;;;;;11.10;6.65;;;13.10;99.90;;;;;;5074650;28;20020;-86
2021/09/20 02:06:20;;;;;;;11.07;6.35;;;13.10;99.90;;;;;;5056581;28;20028;-85
2021/09/20 02:08:47;;;;;;;8.98;5.80;;;13.10;99.90;;;;;;5056301;28;20443;-85
2021/09/20 02:11:12;;;;;;;10.10;6.07;;;13.10;99.90;;;;;;5073793;28;20085;-85
2021/09/20 02:13:38;;;;;;;8.93;5.95;;;13.10;99.90;;;;;;5055648;28;20028;-85
2021/09/20 02:16:04;;;;;;;9.32;5.70;;;13.00;99.90;;;;;;5055231;28;20031;-85
2021/09/20 02:18:30;;;;;;;11.10;6.22;;;13.10;99.90;;;;;;5056279;28;20448;-85
2021/09/20 02:20:56;;;;;;;9.27;6.18;;;13.10;99.90;;;;;;5055770;28;20077;-86
2021/09/20 02:23:21;;;;;;;12.23;6.82;;;13.10;99.90;;;;;;5056378;28;20118;-86
2021/09/20 02:25:47;;;;;;;10.07;6.88;;;13.00;99.90;;;;;;5074619;28;20024;-85
2021/09/20 02:28:13;;;;;;;9.27;6.10;;;13.00;99.90;;;;;;5073995;28;20028;-85
2021/09/20 02:30:39;;;;;;;10.43;6.53;;;13.00;99.90;;;;;;5055654;28;20093;-85
2021/09/20 02:33:05;;;;;;;9.60;6.18;;;13.00;99.90;;;;;;5073893;28;20478;-85
2021/09/20 02:35:31;;;;;;;10.60;6.28;;;12.90;99.90;;;;;;5055882;28;20072;-84
2021/09/20 02:37:57;;;;;;;10.27;6.78;;;12.90;99.90;;;;;;5056044;28;20157;-86
2021/09/20 02:40:22;;;;;;;9.77;6.75;;;12.90;99.90;;;;;;5073630;28;20024;-85
2021/09/20 02:42:48;;;;;;;11.65;6.72;;;12.90;99.90;;;;;;5055899;28;20499;-85
2021/09/20 02:45:14;;;;;;;11.27;6.43;;;12.90;99.90;;;;;;5073809;28;20036;-86
2021/09/20 02:47:40;;;;;;;11.93;6.68;;;12.90;99.90;;;;;;5055902;28;20371;-85
2021/09/20 02:50:08;;;;;;;9.18;6.53;;;12.90;99.90;;;;;;5055226;28;20025;-86
2021/09/20 02:52:34;;;;;;;8.90;6.25;;;12.80;99.90;;;;;;5073337;28;20100;-85
2021/09/20 02:55:00;;;;;;;9.75;6.63;;;12.70;99.90;;;;;;5055758;28;20056;-85
2021/09/20 02:57:26;;;;;;;10.40;7.00;;;12.70;99.90;;;;;;5055507;28;20020;-86
2021/09/20 02:59:52;;;;;;;10.52;6.93;;;12.70;99.90;;;;;;5073105;28;20027;-86
2021/09/20 03:02:19;;;;;;;11.25;6.55;;;12.70;99.90;;;;;;5055456;28;20032;-85
2021/09/20 03:04:44;;;;;;;12.93;7.72;;;12.80;99.90;;;;;;5055418;28;20028;-85
2021/09/20 03:07:10;;;;;;;11.00;6.85;;;12.70;99.90;;;;;;5054862;28;20035;-85
2021/09/20 03:09:35;;;;;;;9.63;6.35;;;12.80;99.90;;;;;;5054627;28;20453;-85
2021/09/20 03:12:01;;;;;;;11.05;6.88;;;12.80;99.90;;;;;;5055296;28;20024;-85
2021/09/20 03:14:27;;;;;;;10.38;6.95;;;12.90;99.90;;;;;;5055338;28;20028;-84
2021/09/20 03:16:53;;;;;;;10.57;7.05;;;12.80;99.90;;;;;;5055417;28;20029;-85
2021/09/20 03:19:18;;;;;;;11.30;7.10;;;12.80;99.90;;;;;;5054764;28;20489;-86
2021/09/20 03:21:44;;;;;;;10.65;7.07;;;12.80;99.90;;;;;;5072832;28;20028;-85
2021/09/20 03:24:12;;;;;;;11.23;7.55;;;12.80;99.90;;;;;;5055018;28;20028;-86
2021/09/20 03:26:38;;;;;;;12.02;6.97;;;12.80;99.90;;;;;;5073019;28;20031;-85
2021/09/20 03:29:04;;;;;;;11.25;7.10;;;12.80;99.90;;;;;;5072286;28;20051;-85
2021/09/20 03:31:30;;;;;;;10.88;7.07;;;12.80;99.90;;;;;;5072453;28;20064;-85
2021/09/20 03:33:55;;;;;;;9.98;7.05;;;12.80;99.90;;;;;;5054744;28;20034;-85
2021/09/20 03:36:21;;;;;;;11.23;6.82;;;12.80;99.90;;;;;;5054745;28;20024;-85
2021/09/20 03:38:47;;;;;;;9.65;6.72;;;12.80;99.90;;;;;;5072557;28;20024;-86
2021/09/20 03:41:13;;;;;;;12.02;6.88;;;12.80;99.90;;;;;;5054683;28;20032;-85
2021/09/20 03:43:38;;;;;;;13.70;8.02;;;12.90;99.90;;;;;;5072671;28;20504;-85
2021/09/20 03:46:04;;;;;;;10.50;7.03;;;12.90;99.90;;;;;;5054535;28;20077;-85
2021/09/20 03:48:30;;;;;;;10.00;6.80;;;13.00;99.90;;;;;;5054497;28;20036;-85
2021/09/20 03:50:56;;;;;;;12.40;7.95;;;13.00;99.90;;;;;;5071768;28;20078;-85
2021/09/20 03:53:21;;;;;;;12.32;7.10;;;13.00;99.90;;;;;;5054425;28;20035;-85
2021/09/20 03:55:47;;;;;;;10.23;7.22;;;13.10;99.90;;;;;;5054807;28;20469;-85
2021/09/20 03:58:12;;;;;;;10.30;7.00;;;13.00;99.90;;;;;;5054423;28;20028;-85
2021/09/20 04:00:38;;;;;;;9.75;6.78;;;13.00;99.90;;;;;;5053932;28;20107;-85
2021/09/20 04:03:04;;;;;;;9.50;7.15;;;13.00;99.90;;;;;;5054498;28;20143;-85
2021/09/20 04:05:30;;;;;;;10.38;6.70;;;13.00;99.90;;;;;;5072185;28;20398;-85
2021/09/20 04:07:56;;;;;;;11.02;7.25;;;13.00;99.90;;;;;;5054252;28;20029;-85
2021/09/20 04:10:22;;;;;;;9.20;6.35;;;12.90;99.90;;;;;;5071622;28;20031;-85
2021/09/20 04:12:47;;;;;;;12.50;6.95;;;13.00;99.90;;;;;;5054217;28;20029;-85
2021/09/20 04:15:13;;;;;;;9.98;7.05;;;13.00;99.90;;;;;;5054169;28;20024;-85
2021/09/20 04:17:39;;;;;;;10.60;6.75;;;13.00;99.90;;;;;;5054148;28;20059;-85
2021/09/20 04:20:09;;;;;;;10.18;6.50;;;12.90;99.90;;;;;;5052687;28;20024;-85
2021/09/20 04:22:35;;;;;;;10.95;6.75;;;13.00;99.90;;;;;;5054074;28;20440;-85
2021/09/20 04:25:00;;;;;;;10.65;7.10;;;13.00;99.90;;;;;;5054116;28;20165;-86
2021/09/20 04:27:27;;;;;;;10.88;6.93;;;13.00;99.90;;;;;;5071955;28;20052;-85
2021/09/20 04:29:53;;;;;;;10.63;6.88;;;13.00;99.90;;;;;;5053731;28;20404;-85
2021/09/20 04:32:19;;;;;;;10.68;7.70;;;13.00;99.90;;;;;;5053929;28;20028;-85
2021/09/20 04:34:44;;;;;;;12.02;7.35;;;13.10;99.90;;;;;;5053888;28;20025;-86
2021/09/20 04:37:10;;;;;;;9.93;6.82;;;13.10;99.90;;;;;;5053969;28;20493;-86
2021/09/20 04:39:36;;;;;;;11.27;6.95;;;13.10;99.90;;;;;;5053505;28;20025;-85
2021/09/20 04:42:02;;;;;;;11.32;7.32;;;13.10;99.90;;;;;;5053957;28;20033;-85
2021/09/20 04:44:28;;;;;;;10.93;7.35;;;13.10;99.90;;;;;;5071849;28;20547;-86
2021/09/20 04:46:54;;;;;;;11.23;7.07;;;13.10;99.90;;;;;;5053913;28;20028;-85
2021/09/20 04:49:19;;;;;;;11.85;7.40;;;13.10;99.90;;;;;;5053359;28;20029;-85
2021/09/20 04:51:45;;;;;;;11.95;7.47;;;13.20;99.90;;;;;;5053793;28;20362;-85
2021/09/20 04:54:11;;;;;;;11.52;7.15;;;13.20;99.90;;;;;;5053882;28;20032;-85
2021/09/20 04:56:36;;;;;;;10.60;7.30;;;13.20;99.90;;;;;;5053785;28;20048;-85
2021/09/20 04:59:02;;;;;;;11.23;7.22;;;13.20;99.90;;;;;;5071000;28;20020;-85
2021/09/20 05:01:28;;;;;;;11.20;6.75;;;13.20;99.90;;;;;;5053687;28;20024;-85
2021/09/20 05:03:53;;;;;;;12.32;7.90;;;13.30;99.90;;;;;;5053651;28;20481;-85
2021/09/20 05:06:20;;;;;;;11.18;7.43;;;13.30;99.90;;;;;;5053821;28;20020;-86
2021/09/20 05:08:46;;;;;;;10.35;7.03;;;13.30;99.90;;;;;;5053442;28;20024;-85
2021/09/20 05:11:12;;;;;;;10.70;6.63;;;13.30;99.90;;;;;;5053228;28;20477;-85
2021/09/20 05:13:38;;;;;;;11.13;6.70;;;13.40;99.90;;;;;;5071540;28;20092;-85
2021/09/20 05:16:04;;;;;;;10.32;7.10;;;13.30;99.90;;;;;;5053737;28;20392;-85
2021/09/20 05:18:29;;;;;;;10.57;7.18;;;13.30;99.90;;;;;;5053441;28;20115;-85
2021/09/20 05:20:55;;;;;;;9.95;6.82;;;13.40;99.90;;;;;;5052810;28;20119;-85
2021/09/20 05:23:21;;;;;;;14.82;8.05;;;13.40;99.90;;;;;;5053520;28;20067;-86
2021/09/20 05:25:46;;;;;;;11.30;7.43;;;13.40;99.90;;;;;;5053543;28;20024;-85
2021/09/20 05:28:12;;;;;;;11.43;6.93;;;13.40;99.90;;;;;;5071184;28;20059;-85
2021/09/20 05:30:38;;;;;;;12.93;7.03;;;13.40;99.90;;;;;;5054782;28;20226;-86
2021/09/20 05:33:04;;;;;;;13.30;7.53;;;13.40;99.90;;;;;;5074920;28;20509;-86
2021/09/20 05:35:30;;;;;;;11.48;6.75;;;13.40;99.90;;;;;;5075120;28;20027;-85
2021/09/20 05:37:56;;;;;;;10.55;6.68;;;13.40;99.90;;;;;;5057214;28;20016;-86
2021/09/20 05:40:22;;;;;;;12.23;7.20;;;13.40;99.90;;;;;;5056583;28;20111;-85
2021/09/20 05:42:48;;;;;;;10.27;7.15;;;13.40;99.90;;;;;;5074785;28;20025;-85
2021/09/20 05:45:14;;;;;;;12.25;7.30;;;13.50;99.90;;;;;;5074966;28;20032;-85
2021/09/20 05:47:41;;;;;;;10.45;6.95;;;13.50;99.90;;;;;;5075184;28;20504;-86
2021/09/20 05:50:08;;;;;;;14.90;7.25;;;13.50;99.90;;;;;;5056260;28;20029;-86
2021/09/20 05:52:34;;;;;;;14.15;7.60;;;13.50;99.90;;;;;;5056806;28;20031;-86
2021/09/20 05:55:00;;;;;;;11.05;7.20;;;13.50;99.90;;;;;;5056713;28;20028;-86
2021/09/20 05:57:25;;;;;;;11.45;6.97;;;13.50;99.90;;;;;;5075036;28;20017;-85
2021/09/20 05:59:51;;;;;;;11.35;6.72;;;13.60;99.90;;;;;;5056356;28;20020;-86
2021/09/20 06:02:17;;;;;;;12.65;7.15;;;13.60;99.90;;;;;;5056668;28;20021;-86
2021/09/20 06:04:43;;;;;;;9.38;6.88;;;13.60;99.90;;;;;;5074468;28;20497;-86
2021/09/20 06:07:09;;;;;;;11.45;7.10;;;13.60;99.80;;;;;;5074577;28;20029;-86
2021/09/20 06:09:35;;;;;;;10.13;7.07;;;13.60;99.90;;;;;;5055939;28;20025;-85
2021/09/20 06:12:03;;;;;;;12.07;6.78;;;13.60;99.60;;;;;;5056364;28;20067;-86
2021/09/20 06:14:29;;;;;;;13.52;7.40;;;13.60;99.70;;;;;;5074333;28;20028;-85
2021/09/20 06:16:55;;;;;;;10.23;6.43;;;13.60;99.70;;;;;;5056165;28;20052;-85
2021/09/20 06:19:20;;;;;;;9.88;7.18;;;13.70;99.70;;;;;;5055671;28;20032;-86
2021/09/20 06:21:46;;;;;;;10.07;6.90;;;13.60;99.50;;;;;;5074228;28;20025;-86
2021/09/20 06:24:11;;;;;;;11.27;7.20;;;13.70;99.50;;;;;;5074234;28;20077;-85
2021/09/20 06:26:37;;;;;;;11.60;7.22;;;13.70;99.40;;;;;;5056150;28;20070;-86
2021/09/20 06:29:03;;;;;;;12.10;7.40;;;13.80;99.40;;;;;;5055409;28;20056;-86
2021/09/20 06:31:29;;;;;;;13.48;7.25;;;13.80;99.40;;;;;;5067720;28;20038;-86
2021/09/20 06:33:54;;;;;;;11.45;7.20;;;13.80;98.90;;;;;;5057165;28;20028;-86
2021/09/20 06:36:20;;;;;;;12.20;6.93;;;13.80;98.80;;;;;;5056368;28;20025;-86
2021/09/20 06:38:46;;;;;;;11.65;7.55;;;13.80;98.80;;;;;;5056130;28;20121;-86
2021/09/20 06:41:11;;;;;;;9.50;6.60;;;13.80;98.90;;;;;;5073124;28;20043;-86
2021/09/20 06:43:37;;;;;;;9.82;7.13;;;13.80;98.90;;;;;;5056073;28;20078;-85
2021/09/20 06:46:03;;;;;;;11.45;7.25;;;13.80;99.00;;;;;;5056384;28;20098;-86
2021/09/20 06:48:29;;;;;;;14.10;7.65;;;13.90;99.00;;;;;;5056238;28;20032;-85
2021/09/20 06:50:54;;;;;;;18.17;7.63;;;13.90;98.90;;;;;;5073315;28;20078;-86
2021/09/20 06:53:20;;;;;;;11.52;7.25;;;13.90;98.90;;;;;;5073476;28;20060;-86
2021/09/20 06:55:46;;;;;;;12.38;7.20;;;13.90;98.90;;;;;;5056013;28;20222;-86
2021/09/20 06:58:11;;;;;;;11.73;7.60;;;13.90;98.60;;;;;;5055792;28;20025;-86
2021/09/20 07:00:37;;;;;;;10.00;6.68;;;14.00;98.60;;;;;;5073043;28;20031;-86
2021/09/20 07:03:03;;;;;;;11.73;7.50;;;14.00;98.10;;;;;;5055425;28;20032;-86
2021/09/20 07:05:28;;;;;;;11.50;6.70;;;14.00;98.20;;;;;;5073405;28;20032;-86
2021/09/20 07:07:54;;;;;;;13.70;7.00;;;14.00;98.20;;;;;;5073441;28;20566;-85
2021/09/20 07:10:20;;;;;;;12.27;7.15;;;14.00;98.20;;;;;;5054928;28;20393;-86
2021/09/20 07:12:45;;;;;;;9.50;6.53;;;14.00;98.20;;;;;;5073337;28;20393;-86
2021/09/20 07:15:15;;;;;;;12.88;7.32;;;14.10;98.10;;;;;;5074010;28;20103;-86
2021/09/20 07:17:41;;;;;;;11.48;7.40;;;14.10;97.80;;;;;;5055364;28;20029;-86
2021/09/20 07:20:07;;;;;;;13.77;7.45;;;14.10;97.80;;;;;;5054830;28;20024;-86
2021/09/20 07:22:33;;;;;;;10.77;6.38;;;14.10;97.80;;;;;;5073347;28;20481;-86
2021/09/20 07:24:59;;;;;;;9.70;6.47;;;14.20;97.60;;;;;;5055267;28;20031;-86
2021/09/20 07:27:24;;;;;;;10.57;6.45;;;14.20;97.40;;;;;;5073080;28;20099;-86
2021/09/20 07:29:50;;;;;;;10.55;6.28;;;14.30;97.50;;;;;;5054738;28;20032;-86
2021/09/20 07:32:16;;;;;;;8.95;6.57;;;14.30;97.80;;;;;;5054961;28;20071;-86
2021/09/20 07:34:42;;;;;;;8.88;6.25;;;14.30;97.40;;;;;;5055240;28;20031;-86
2021/09/20 07:37:07;;;;;;;8.43;6.35;;;14.30;97.20;;;;;;5055388;28;20036;-86
2021/09/20 07:39:33;;;;;;;9.48;6.38;;;14.30;96.80;;;;;;5054649;28;20025;-85
2021/09/20 07:41:59;;;;;;;9.50;6.25;;;14.30;96.80;;;;;;5055192;28;20028;-86
2021/09/20 07:44:25;;;;;;;11.10;7.15;;;14.40;96.70;;;;;;5054878;28;20029;-86
2021/09/20 07:46:51;;;;;;;10.18;6.82;;;14.40;96.60;;;;;;5054637;28;20561;-86
2021/09/20 07:49:17;;;;;;;10.85;6.78;;;14.40;96.70;;;;;;5072149;28;20032;-86
2021/09/20 07:51:43;;;;;;;10.45;6.72;;;14.40;96.50;;;;;;5054541;28;20039;-86
2021/09/20 07:54:08;;;;;;;9.93;6.25;;;14.40;96.50;;;;;;5072920;28;20103;-86
2021/09/20 07:56:34;;;;;;;11.45;6.38;;;14.50;96.50;;;;;;5056043;28;20035;-86
2021/09/20 07:59:01;;;;;;;10.93;6.30;;;14.50;96.70;;;;;;5054059;28;20051;-86
2021/09/20 08:01:27;;;;;;;10.65;6.60;;;14.50;96.50;;;;;;5054475;28;20097;-86
2021/09/20 08:03:54;;;;;;;12.65;6.57;;;14.50;96.40;;;;;;5072243;28;20059;-86
2021/09/20 08:06:20;;;;;;;8.98;6.22;;;14.60;96.60;;;;;;5054410;28;20074;-86
2021/09/20 08:08:46;;;;;;;10.63;6.00;;;14.60;96.60;;;;;;5054194;28;20064;-86
2021/09/20 08:11:13;;;;;;;11.43;6.57;;;14.60;96.30;;;;;;5071738;28;20506;-86
2021/09/20 08:13:39;;;;;;;7.43;5.82;;;14.60;96.20;;;;;;5054334;28;20045;-86
2021/09/20 08:16:05;;;;;;;9.77;6.60;;;14.70;96.40;;;;;;5072085;28;20028;-85
2021/09/20 08:18:30;;;;;;;12.02;6.50;;;14.70;96.30;;;;;;5054123;28;20024;-86
2021/09/20 08:20:56;;;;;;;10.57;6.50;;;14.70;96.00;;;;;;5071742;28;20099;-86
2021/09/20 08:23:23;;;;;;;8.88;6.20;;;14.70;96.00;;;;;;5054176;28;20032;-86
2021/09/20 08:25:49;;;;;;;7.93;6.07;;;14.80;95.80;;;;;;5054066;28;20032;-86
2021/09/20 08:28:15;;;;;;;9.60;5.90;;;14.80;95.90;;;;;;5072491;28;20090;-86
2021/09/20 08:30:42;;;;;;;11.23;6.13;;;14.80;95.60;;;;;;5053727;28;20071;-85
2021/09/20 08:33:08;;;;;;;11.95;7.25;;;14.80;95.60;;;;;;5071577;28;20104;-86
2021/09/20 08:35:34;;;;;;;12.95;6.80;;;14.90;95.70;;;;;;5072161;28;20103;-86
2021/09/20 08:38:00;;;;;;;9.93;6.25;;;14.90;95.50;;;;;;5071946;28;20029;-85
2021/09/20 08:40:27;;;;;;;9.77;6.05;;;14.90;95.40;;;;;;5053465;28;20017;-86
2021/09/20 08:42:55;;;;;;;12.18;6.38;;;14.90;95.40;;;;;;5053920;28;20039;-86
2021/09/20 08:45:22;;;;;;;9.68;6.03;;;14.90;95.30;;;;;;5054079;28;20067;-86
2021/09/20 08:47:50;;;;;;;12.45;6.03;;;15.00;95.40;;;;;;5071673;28;20058;-86
2021/09/20 08:50:24;;;;;;;10.10;5.90;;;15.00;95.00;;;;;;5053458;28;20544;-86
2021/09/20 08:52:51;;;;;;;8.32;5.28;;;15.00;95.10;;;;;;5071652;28;20020;-86
2021/09/20 08:55:16;;;;;;;7.30;5.60;;;15.10;94.80;;;;;;5053827;28;20040;-86
2021/09/20 08:57:42;;;;;;;9.38;5.90;;;15.10;94.60;;;;;;5072084;28;20020;-86
2021/09/20 09:00:10;;;;;;;9.95;6.18;;;15.20;94.50;;;;;;5071161;28;20492;-86
2021/09/20 09:02:36;;;;;;;7.40;5.38;;;15.20;94.20;;;;;;5053797;28;20032;-86
2021/09/20 09:05:26;;;;;;;8.52;5.03;;;15.20;94.30;;;;;;5055004;28;20396;-86
2021/09/20 09:07:55;;;;;;;7.65;5.80;;;15.20;94.20;;;;;;5057708;28;20094;-86
2021/09/20 09:10:24;;;;;;;;;;;15.20;94.10;;;;;;5057761;28;20028;-86
2021/09/20 09:12:51;;;;;;;7.35;5.43;;;15.30;93.90;;;;;;5075428;28;19908;-86
2021/09/20 09:15:19;;;;;;;8.60;5.82;;;15.30;94.00;;;;;;5075399;28;20021;-86
2021/09/20 09:17:47;;;;;;;8.40;5.28;;;15.30;94.10;;;;;;5057410;28;20024;-86
2021/09/20 09:20:23;;;;;;;9.75;5.82;;;15.40;94.20;;;;;;5075170;28;20470;-86
2021/09/20 09:23:04;;;;;;;6.88;4.75;;;15.30;93.50;;;;;;5075588;28;20017;-86
2021/09/20 09:25:48;;;;;;;8.35;5.28;;;15.40;93.80;;;;;;5057506;28;20066;-86
2021/09/20 09:28:23;;;;;;;7.80;5.50;;;15.40;93.60;;;;;;5057553;28;20159;-86
2021/09/20 09:30:57;;;;;;;9.98;5.53;;;15.50;93.80;;;;;;5056860;28;20025;-85
2021/09/20 09:33:34;;;;;;;6.75;5.32;;;15.50;93.70;;;;;;5057169;28;20024;-86
2021/09/20 09:36:01;;;;;;;7.18;4.63;;;15.60;93.50;;;;;;5057332;28;20405;-86
2021/09/20 09:38:26;;;;;;;7.05;4.93;;;15.60;93.80;;;;;;5056966;28;20097;-85
2021/09/20 09:41:02;;;;;;;7.82;5.63;;;15.60;93.90;;;;;;5056589;28;20021;-87
2021/09/20 09:43:42;;;;;;;7.50;4.90;;;15.70;93.60;;;;;;5074831;28;20020;-86
2021/09/20 09:46:22;;;;;;;6.47;4.35;;;15.70;93.60;;;;;;5057082;28;20484;-85
2021/09/20 09:48:49;;;;;;;7.25;4.50;;;15.70;93.70;;;;;;5074431;28;20056;-86
2021/09/20 09:51:17;;;;;;;7.70;5.07;;;15.80;93.50;;;;;;5074454;28;20370;-86
2021/09/20 09:53:45;;;;;;;7.30;4.45;;;15.80;93.60;;;;;;5056749;28;20025;-86
2021/09/20 09:56:14;;;;;;;9.65;5.13;;;15.90;93.70;;;;;;5056767;28;20392;-86
2021/09/20 09:58:51;;;;;;;9.07;5.05;;;15.90;93.40;;;;;;5056582;28;20504;-86
2021/09/20 10:01:20;;;;;;;7.72;4.80;;;15.90;93.50;;;;;;5056627;28;20028;-86
2021/09/20 10:04:16;;;;;;;6.95;4.32;;;16.00;93.40;;;;;;5074671;28;20020;-86
2021/09/20 10:06:42;;;;;;;10.00;4.95;;;16.00;93.40;;;;;;5056539;28;20028;-86
2021/09/20 10:09:29;;;;;;;5.55;4.30;;;16.00;93.10;;;;;;5056077;28;20492;-86
2021/09/20 10:11:58;;;;;;;5.38;3.83;;;15.90;92.60;;;;;;5074373;28;20098;-86
2021/09/20 10:14:26;;;;;;;6.10;4.38;;;15.90;92.50;;;;;;5074319;28;20021;-86
2021/09/20 10:16:57;;;;;;;5.70;4.00;;;15.90;92.60;;;;;;5073045;28;20389;-85
2021/09/20 10:19:22;;;;;;;7.82;4.75;;;15.90;92.40;;;;;;5073783;28;20477;-86
2021/09/20 10:21:50;;;;;;;6.35;4.10;;;15.90;92.20;;;;;;5074198;28;20040;-86
2021/09/20 10:24:16;;;;;;;5.10;3.65;;;15.90;92.10;;;;;;5074235;28;20125;-86
2021/09/20 10:26:43;;;;;;;5.25;3.72;;;15.90;92.10;;;;;;5056030;28;20024;-86
2021/09/20 10:29:13;;;;;;;7.78;5.03;;;16.00;91.90;;;;;;5073444;28;20481;-86
2021/09/20 10:31:41;;;;;;;7.10;4.22;;;16.00;90.90;;;;;;5056123;28;20024;-86
2021/09/20 10:34:19;;;;;;;8.43;4.10;;;16.00;91.10;;;;;;5074043;28;20029;-86
2021/09/20 10:36:55;;;;;;;5.70;4.07;;;16.10;91.00;;;;;;5056266;28;20024;-86
2021/09/20 10:39:46;;;;;;;6.65;4.18;;;16.10;90.60;;;;;;5055377;28;20028;-86
2021/09/20 10:42:49;;;;;;;6.50;3.67;;;16.00;90.50;;;;;;5055988;28;20029;-86
2021/09/20 10:45:36;;;;;;;4.80;3.35;;;16.00;90.80;;;;;;5053411;28;20047;-86
2021/09/20 10:48:14;;;;;;;5.35;3.67;;;16.00;90.80;;;;;;5073563;28;20477;-85
2021/09/20 10:50:56;;;;;;;4.68;3.78;;;16.10;91.00;;;;;;5055248;28;20462;-86
2021/09/20 10:53:33;;;;;;;5.65;4.22;;;16.10;89.90;;;;;;5055444;28;20029;-86
2021/09/20 10:56:02;;;;;;;6.50;4.78;;;16.10;88.70;;;;;;5055997;28;20024;-85
2021/09/20 10:58:36;;;;;;;6.53;4.82;;;16.20;87.70;;;;;;5074747;28;20067;-86
2021/09/20 11:01:10;;;;;;;6.82;4.85;;;16.20;87.20;;;;;;5056158;28;20029;-86
2021/09/20 11:03:48;;;;;;;5.90;4.53;;;16.20;87.00;;;;;;5074390;28;20076;-86
2021/09/20 11:06:40;;;;;;;7.07;4.35;;;16.30;88.00;;;;;;5074491;28;20470;-86
2021/09/20 11:09:06;;;;;;;6.88;4.45;;;16.30;88.90;;;;;;5056147;28;20016;-86
2021/09/20 11:14:21;;;;;;;5.68;4.30;;;16.20;88.70;;;;;;5074287;28;20021;-86
2021/09/20 11:16:54;;;;;;;11.35;4.78;;;16.20;88.90;;;;;;5055284;28;20075;-86
2021/09/20 11:19:41;;;;;;;6.20;4.30;;;16.20;88.80;;;;;;5055982;28;20021;-86
2021/09/20 11:24:52;;;;;;;6.55;4.35;;;16.20;88.30;;;;;;5074467;28;20123;-86
2021/09/20 11:27:28;;;;;;;6.25;4.00;;;16.20;88.40;;;;;;5056204;28;20044;-85
2021/09/20 11:29:58;;;;;;;5.68;4.13;;;16.20;88.10;;;;;;5056180;28;20056;-86
2021/09/20 11:32:24;;;;;;;6.50;4.35;;;16.20;87.50;;;;;;5074409;28;20016;-85
2021/09/20 11:34:52;;;;;;;5.30;4.25;;;16.30;87.80;;;;;;5055688;28;20027;-86
2021/09/20 11:37:22;;;;;;;6.30;3.90;;;16.30;87.80;;;;;;5073733;28;20055;-86
2021/09/20 11:40:16;;;;;;;6.53;4.50;;;16.30;88.30;;;;;;5055612;28;20073;-85
2021/09/20 11:42:47;;;;;;;6.53;4.53;;;16.40;87.20;;;;;;5051111;28;20045;-85
2021/09/20 11:45:15;;;;;;;6.72;4.57;;;16.30;86.30;;;;;;5056658;28;20032;-86
2021/09/20 11:47:47;;;;;;;6.05;4.05;;;16.30;86.50;;;;;;5076522;28;20048;-86
2021/09/20 11:50:28;;;;;;;5.72;4.10;;;16.30;86.90;;;;;;5074210;28;20039;-86
2021/09/20 11:52:56;;;;;;;6.43;4.50;;;16.40;87.30;;;;;;5054738;28;20032;-86
2021/09/20 11:55:29;;;;;;;6.05;4.47;;;16.40;87.30;;;;;;5072571;28;20028;-86
2021/09/20 11:58:09;;;;;;;7.15;5.25;;;16.40;87.00;;;;;;5054493;28;20149;-86
2021/09/20 12:00:37;;;;;;;6.65;4.93;;;16.40;84.40;;;;;;5054170;28;20036;-86
2021/09/20 12:03:05;;;;;;;5.43;3.90;;;16.40;84.30;;;;;;5054692;28;20119;-86
2021/09/20 12:05:49;;;;;;;7.22;5.10;;;16.40;85.10;;;;;;5054512;28;20505;-86
2021/09/20 12:08:17;;;;;;;9.00;4.88;;;16.40;85.70;;;;;;5072210;28;20028;-86
2021/09/20 12:10:46;;;;;;;6.70;5.05;;;16.40;86.70;;;;;;5053908;28;20036;-86
2021/09/20 12:13:15;;;;;;;14.45;5.45;;;16.40;87.40;;;;;;5054546;28;20024;-86
2021/09/20 12:15:45;;;;;;;6.75;5.20;;;16.40;87.10;;;;;;5054328;28;20036;-86
2021/09/20 12:18:15;;;;;;;;;;;16.40;87.10;;;;;;5072698;28;20021;-86
2021/09/20 12:20:50;;;;;;;7.65;4.80;;;16.40;86.20;;;;;;5071713;28;20352;-85
2021/09/20 12:23:43;;;;;;;6.68;4.75;;;16.50;86.00;;;;;;5054479;28;20036;-86
2021/09/20 12:26:28;;;;;;;6.28;4.55;;;16.50;85.90;;;;;;5072310;28;20029;-85
2021/09/20 12:29:00;;;;;;;7.20;4.88;;;16.60;86.80;;;;;;5071490;28;20393;-86
2021/09/20 12:31:32;;;;;;;6.28;4.65;;;16.50;86.60;;;;;;5054051;28;20206;-86
2021/09/20 12:34:12;;;;;;;6.22;5.03;;;16.50;87.00;;;;;;5071699;28;20035;-86
2021/09/20 12:36:46;;;;;;;7.95;4.90;;;16.60;85.30;;;;;;5071916;28;20016;-86
2021/09/20 12:39:17;;;;;;;9.30;4.90;;;16.60;85.90;;;;;;5070982;28;20492;-86
2021/09/20 12:41:45;;;;;;;5.65;4.30;;;16.60;87.00;;;;;;5071760;28;20036;-86
2021/09/20 12:44:27;;;;;;;8.35;5.18;;;16.60;87.40;;;;;;5071915;28;20059;-86
2021/09/20 12:47:05;;;;;;;6.15;4.63;;;16.50;87.30;;;;;;5071912;28;20104;-85
2021/09/20 12:49:31;;;;;;;6.63;4.85;;;16.60;88.10;;;;;;5053486;28;20032;-85
2021/09/20 12:51:57;;;;;;;8.85;5.18;;;16.60;88.20;;;;;;5053683;28;20078;-86
2021/09/20 12:54:26;;;;;;;7.97;5.07;;;16.70;86.90;;;;;;5071865;28;20427;-85